sensor_id;sensor_type;location;lat;lon;timestamp;P1;durP1;ratioP1;P2;durP2;ratioP2
42978;SDS011;28616;44.746;19.678;2023-10-09T00:00:53;6.13;;;4.13;;
42978;SDS011;28616;44.746;19.678;2023-10-09T00:03:29;9.88;;;3.72;;
42978;SDS011;28616;44.746;19.678;2023-10-09T00:05:56;4.05;;;1.92;;
42978;SDS011;28616;44.746;19.678;2023-10-09T00:08:23;7.43;;;1.98;;
42978;SDS011;28616;44.746;19.678;2023-10-09T00:10:55;3.83;;;1.70;;
42978;SDS011;28616;44.746;19.678;2023-10-09T00:13:24;4.43;;;2.25;;
42978;SDS011;28616;44.746;19.678;2023-10-09T00:15:55;4.57;;;1.90;;
42978;SDS011;28616;44.746;19.678;2023-10-09T00:18:33;7.32;;;1.90;;
42978;SDS011;28616;44.746;19.678;2023-10-09T00:21:00;4.13;;;1.65;;
42978;SDS011;28616;44.746;19.678;2023-10-09T00:23:36;4.53;;;1.90;;
42978;SDS011;28616;44.746;19.678;2023-10-09T00:26:02;3.30;;;2.00;;
42978;SDS011;28616;44.746;19.678;2023-10-09T00:28:36;5.43;;;1.77;;
42978;SDS011;28616;44.746;19.678;2023-10-09T00:31:06;4.70;;;2.25;;
42978;SDS011;28616;44.746;19.678;2023-10-09T00:33:33;5.15;;;2.53;;
42978;SDS011;28616;44.746;19.678;2023-10-09T00:36:03;5.03;;;2.42;;
42978;SDS011;28616;44.746;19.678;2023-10-09T00:38:34;7.63;;;2.80;;
42978;SDS011;28616;44.746;19.678;2023-10-09T00:41:16;7.82;;;4.72;;
42978;SDS011;28616;44.746;19.678;2023-10-09T00:43:46;8.13;;;3.42;;
42978;SDS011;28616;44.746;19.678;2023-10-09T00:46:15;7.03;;;3.25;;
42978;SDS011;28616;44.746;19.678;2023-10-09T00:48:46;7.55;;;3.50;;
42978;SDS011;28616;44.746;19.678;2023-10-09T00:51:13;7.13;;;3.53;;
42978;SDS011;28616;44.746;19.678;2023-10-09T00:53:47;6.13;;;2.72;;
42978;SDS011;28616;44.746;19.678;2023-10-09T00:56:16;7.72;;;3.30;;
42978;SDS011;28616;44.746;19.678;2023-10-09T00:58:47;6.22;;;3.33;;
42978;SDS011;28616;44.746;19.678;2023-10-09T01:01:21;11.38;;;3.80;;
42978;SDS011;28616;44.746;19.678;2023-10-09T01:04:05;8.55;;;4.15;;
42978;SDS011;28616;44.746;19.678;2023-10-09T01:06:44;8.25;;;3.30;;
42978;SDS011;28616;44.746;19.678;2023-10-09T01:09:29;4.28;;;3.00;;
42978;SDS011;28616;44.746;19.678;2023-10-09T01:12:02;6.90;;;3.13;;
42978;SDS011;28616;44.746;19.678;2023-10-09T01:14:27;7.07;;;2.35;;
42978;SDS011;28616;44.746;19.678;2023-10-09T01:16:53;6.03;;;2.30;;
42978;SDS011;28616;44.746;19.678;2023-10-09T01:19:20;6.20;;;2.72;;
42978;SDS011;28616;44.746;19.678;2023-10-09T01:21:56;5.80;;;2.05;;
42978;SDS011;28616;44.746;19.678;2023-10-09T01:24:37;4.95;;;1.98;;
42978;SDS011;28616;44.746;19.678;2023-10-09T01:27:04;5.38;;;2.15;;
42978;SDS011;28616;44.746;19.678;2023-10-09T01:29:37;5.65;;;2.38;;
42978;SDS011;28616;44.746;19.678;2023-10-09T01:32:06;7.22;;;2.20;;
42978;SDS011;28616;44.746;19.678;2023-10-09T01:34:35;7.50;;;5.07;;
42978;SDS011;28616;44.746;19.678;2023-10-09T01:37:04;8.02;;;3.25;;
42978;SDS011;28616;44.746;19.678;2023-10-09T01:39:36;5.75;;;2.40;;
42978;SDS011;28616;44.746;19.678;2023-10-09T01:42:07;5.10;;;2.78;;
42978;SDS011;28616;44.746;19.678;2023-10-09T01:44:34;10.75;;;2.67;;
42978;SDS011;28616;44.746;19.678;2023-10-09T01:47:03;7.15;;;6.45;;
42978;SDS011;28616;44.746;19.678;2023-10-09T01:49:35;5.05;;;2.47;;
42978;SDS011;28616;44.746;19.678;2023-10-09T01:52:06;8.82;;;4.15;;
42978;SDS011;28616;44.746;19.678;2023-10-09T01:54:37;8.57;;;2.30;;
42978;SDS011;28616;44.746;19.678;2023-10-09T01:57:06;6.63;;;2.28;;
42978;SDS011;28616;44.746;19.678;2023-10-09T01:59:40;6.82;;;2.60;;
42978;SDS011;28616;44.746;19.678;2023-10-09T02:02:10;8.15;;;2.15;;
42978;SDS011;28616;44.746;19.678;2023-10-09T02:04:59;8.97;;;2.13;;
42978;SDS011;28616;44.746;19.678;2023-10-09T02:07:50;4.82;;;2.25;;
42978;SDS011;28616;44.746;19.678;2023-10-09T02:10:17;8.20;;;6.95;;
42978;SDS011;28616;44.746;19.678;2023-10-09T02:12:50;4.68;;;2.35;;
42978;SDS011;28616;44.746;19.678;2023-10-09T02:15:19;5.88;;;2.47;;
42978;SDS011;28616;44.746;19.678;2023-10-09T02:18:05;4.10;;;2.33;;
42978;SDS011;28616;44.746;19.678;2023-10-09T02:20:42;6.88;;;2.17;;
42978;SDS011;28616;44.746;19.678;2023-10-09T02:23:12;3.95;;;2.20;;
42978;SDS011;28616;44.746;19.678;2023-10-09T02:25:41;6.10;;;2.60;;
42978;SDS011;28616;44.746;19.678;2023-10-09T02:28:11;6.03;;;2.20;;
42978;SDS011;28616;44.746;19.678;2023-10-09T02:30:46;4.85;;;2.30;;
42978;SDS011;28616;44.746;19.678;2023-10-09T02:33:13;8.90;;;2.53;;
42978;SDS011;28616;44.746;19.678;2023-10-09T02:35:56;7.57;;;2.30;;
42978;SDS011;28616;44.746;19.678;2023-10-09T02:38:27;6.38;;;5.70;;
42978;SDS011;28616;44.746;19.678;2023-10-09T02:40:56;6.55;;;2.58;;
42978;SDS011;28616;44.746;19.678;2023-10-09T02:43:31;4.13;;;2.20;;
42978;SDS011;28616;44.746;19.678;2023-10-09T02:46:15;5.90;;;2.28;;
42978;SDS011;28616;44.746;19.678;2023-10-09T02:48:46;5.88;;;2.20;;
42978;SDS011;28616;44.746;19.678;2023-10-09T02:51:18;5.32;;;2.53;;
42978;SDS011;28616;44.746;19.678;2023-10-09T02:53:54;7.07;;;2.85;;
42978;SDS011;28616;44.746;19.678;2023-10-09T02:56:22;8.30;;;2.30;;
42978;SDS011;28616;44.746;19.678;2023-10-09T02:59:01;13.15;;;3.88;;
42978;SDS011;28616;44.746;19.678;2023-10-09T03:01:33;6.10;;;2.30;;
42978;SDS011;28616;44.746;19.678;2023-10-09T03:04:00;6.57;;;2.78;;
42978;SDS011;28616;44.746;19.678;2023-10-09T03:06:28;7.20;;;2.65;;
42978;SDS011;28616;44.746;19.678;2023-10-09T03:08:57;7.15;;;2.88;;
42978;SDS011;28616;44.746;19.678;2023-10-09T03:11:23;6.68;;;2.40;;
42978;SDS011;28616;44.746;19.678;2023-10-09T03:13:51;7.32;;;2.28;;
42978;SDS011;28616;44.746;19.678;2023-10-09T03:16:18;11.35;;;4.13;;
42978;SDS011;28616;44.746;19.678;2023-10-09T03:18:53;7.85;;;3.30;;
42978;SDS011;28616;44.746;19.678;2023-10-09T03:21:19;10.48;;;3.53;;
42978;SDS011;28616;44.746;19.678;2023-10-09T03:23:46;8.25;;;2.85;;
42978;SDS011;28616;44.746;19.678;2023-10-09T03:26:18;7.25;;;2.53;;
42978;SDS011;28616;44.746;19.678;2023-10-09T03:28:46;6.22;;;2.78;;
42978;SDS011;28616;44.746;19.678;2023-10-09T03:31:12;12.77;;;2.50;;
42978;SDS011;28616;44.746;19.678;2023-10-09T03:33:41;8.45;;;5.82;;
42978;SDS011;28616;44.746;19.678;2023-10-09T03:36:07;5.10;;;3.40;;
42978;SDS011;28616;44.746;19.678;2023-10-09T03:38:36;8.27;;;3.22;;
42978;SDS011;28616;44.746;19.678;2023-10-09T03:41:03;7.78;;;2.80;;
42978;SDS011;28616;44.746;19.678;2023-10-09T03:43:37;9.13;;;3.20;;
42978;SDS011;28616;44.746;19.678;2023-10-09T03:46:09;9.68;;;3.05;;
42978;SDS011;28616;44.746;19.678;2023-10-09T03:48:51;13.48;;;2.60;;
42978;SDS011;28616;44.746;19.678;2023-10-09T03:51:17;8.90;;;3.78;;
42978;SDS011;28616;44.746;19.678;2023-10-09T03:53:49;8.45;;;2.78;;
42978;SDS011;28616;44.746;19.678;2023-10-09T03:56:18;4.95;;;2.80;;
42978;SDS011;28616;44.746;19.678;2023-10-09T03:58:50;5.80;;;2.88;;
42978;SDS011;28616;44.746;19.678;2023-10-09T04:01:20;6.40;;;2.70;;
42978;SDS011;28616;44.746;19.678;2023-10-09T04:03:53;7.90;;;2.92;;
42978;SDS011;28616;44.746;19.678;2023-10-09T04:06:29;7.82;;;3.20;;
42978;SDS011;28616;44.746;19.678;2023-10-09T04:11:49;10.20;;;5.45;;
42978;SDS011;28616;44.746;19.678;2023-10-09T04:14:42;8.25;;;3.70;;
42978;SDS011;28616;44.746;19.678;2023-10-09T04:17:33;13.52;;;9.02;;
42978;SDS011;28616;44.746;19.678;2023-10-09T04:20:03;6.65;;;3.40;;
42978;SDS011;28616;44.746;19.678;2023-10-09T04:22:45;11.57;;;4.22;;
42978;SDS011;28616;44.746;19.678;2023-10-09T04:25:25;8.68;;;3.78;;
42978;SDS011;28616;44.746;19.678;2023-10-09T04:27:52;9.68;;;5.25;;
42978;SDS011;28616;44.746;19.678;2023-10-09T04:30:18;13.65;;;4.63;;
42978;SDS011;28616;44.746;19.678;2023-10-09T04:32:44;12.20;;;5.90;;
42978;SDS011;28616;44.746;19.678;2023-10-09T04:35:11;13.02;;;5.93;;
42978;SDS011;28616;44.746;19.678;2023-10-09T04:37:50;10.13;;;5.68;;
42978;SDS011;28616;44.746;19.678;2023-10-09T04:40:29;12.45;;;4.38;;
42978;SDS011;28616;44.746;19.678;2023-10-09T04:43:07;17.15;;;5.30;;
42978;SDS011;28616;44.746;19.678;2023-10-09T04:45:37;12.07;;;5.28;;
42978;SDS011;28616;44.746;19.678;2023-10-09T04:48:09;14.85;;;5.15;;
42978;SDS011;28616;44.746;19.678;2023-10-09T04:50:36;12.02;;;6.15;;
42978;SDS011;28616;44.746;19.678;2023-10-09T04:53:11;9.35;;;4.30;;
42978;SDS011;28616;44.746;19.678;2023-10-09T04:55:43;12.93;;;4.82;;
42978;SDS011;28616;44.746;19.678;2023-10-09T04:58:18;12.98;;;4.10;;
42978;SDS011;28616;44.746;19.678;2023-10-09T05:00:54;6.57;;;2.95;;
42978;SDS011;28616;44.746;19.678;2023-10-09T05:06:08;11.20;;;3.03;;
42978;SDS011;28616;44.746;19.678;2023-10-09T05:08:56;8.27;;;3.20;;
42978;SDS011;28616;44.746;19.678;2023-10-09T05:11:32;10.00;;;3.22;;
42978;SDS011;28616;44.746;19.678;2023-10-09T05:14:17;11.32;;;3.38;;
42978;SDS011;28616;44.746;19.678;2023-10-09T05:16:52;7.72;;;3.35;;
42978;SDS011;28616;44.746;19.678;2023-10-09T05:19:26;7.93;;;3.40;;
42978;SDS011;28616;44.746;19.678;2023-10-09T05:22:15;10.82;;;4.15;;
42978;SDS011;28616;44.746;19.678;2023-10-09T05:25:02;11.50;;;3.63;;
42978;SDS011;28616;44.746;19.678;2023-10-09T05:27:40;6.95;;;3.58;;
42978;SDS011;28616;44.746;19.678;2023-10-09T05:30:15;14.18;;;3.70;;
42978;SDS011;28616;44.746;19.678;2023-10-09T05:32:53;10.32;;;4.13;;
42978;SDS011;28616;44.746;19.678;2023-10-09T05:35:39;7.38;;;3.78;;
42978;SDS011;28616;44.746;19.678;2023-10-09T05:38:27;11.30;;;3.72;;
42978;SDS011;28616;44.746;19.678;2023-10-09T05:40:55;7.63;;;3.42;;
42978;SDS011;28616;44.746;19.678;2023-10-09T05:43:44;8.40;;;3.72;;
42978;SDS011;28616;44.746;19.678;2023-10-09T05:46:28;8.23;;;3.83;;
42978;SDS011;28616;44.746;19.678;2023-10-09T05:49:00;10.65;;;5.20;;
42978;SDS011;28616;44.746;19.678;2023-10-09T05:51:34;9.90;;;4.57;;
42978;SDS011;28616;44.746;19.678;2023-10-09T05:54:07;9.43;;;3.67;;
42978;SDS011;28616;44.746;19.678;2023-10-09T05:56:51;11.77;;;5.68;;
42978;SDS011;28616;44.746;19.678;2023-10-09T05:59:35;19.75;;;7.97;;
42978;SDS011;28616;44.746;19.678;2023-10-09T06:02:19;20.38;;;8.52;;
42978;SDS011;28616;44.746;19.678;2023-10-09T06:05:20;24.10;;;9.88;;
42978;SDS011;28616;44.746;19.678;2023-10-09T06:08:04;22.00;;;9.60;;
42978;SDS011;28616;44.746;19.678;2023-10-09T06:10:32;17.73;;;8.48;;
42978;SDS011;28616;44.746;19.678;2023-10-09T06:13:06;20.80;;;9.25;;
42978;SDS011;28616;44.746;19.678;2023-10-09T06:15:39;10.82;;;5.63;;
42978;SDS011;28616;44.746;19.678;2023-10-09T06:18:10;16.25;;;6.72;;
42978;SDS011;28616;44.746;19.678;2023-10-09T06:20:51;10.57;;;5.63;;
42978;SDS011;28616;44.746;19.678;2023-10-09T06:23:33;13.45;;;5.78;;
42978;SDS011;28616;44.746;19.678;2023-10-09T06:26:17;10.25;;;4.20;;
42978;SDS011;28616;44.746;19.678;2023-10-09T06:31:35;12.90;;;4.38;;
42978;SDS011;28616;44.746;19.678;2023-10-09T06:34:19;10.90;;;3.90;;
42978;SDS011;28616;44.746;19.678;2023-10-09T06:36:49;16.48;;;4.47;;
42978;SDS011;28616;44.746;19.678;2023-10-09T06:39:18;8.10;;;3.60;;
42978;SDS011;28616;44.746;19.678;2023-10-09T06:42:02;14.45;;;4.20;;
42978;SDS011;28616;44.746;19.678;2023-10-09T06:44:48;11.68;;;3.00;;
42978;SDS011;28616;44.746;19.678;2023-10-09T06:47:20;12.98;;;3.67;;
42978;SDS011;28616;44.746;19.678;2023-10-09T06:49:49;11.07;;;5.18;;
42978;SDS011;28616;44.746;19.678;2023-10-09T06:52:34;10.20;;;4.55;;
42978;SDS011;28616;44.746;19.678;2023-10-09T06:55:18;9.77;;;4.75;;
42978;SDS011;28616;44.746;19.678;2023-10-09T06:57:45;13.13;;;5.28;;
42978;SDS011;28616;44.746;19.678;2023-10-09T07:00:14;10.88;;;4.72;;
42978;SDS011;28616;44.746;19.678;2023-10-09T07:03:00;6.82;;;3.17;;
42978;SDS011;28616;44.746;19.678;2023-10-09T07:05:36;7.55;;;3.28;;
42978;SDS011;28616;44.746;19.678;2023-10-09T07:08:25;8.30;;;2.92;;
42978;SDS011;28616;44.746;19.678;2023-10-09T07:13:44;7.93;;;3.55;;
42978;SDS011;28616;44.746;19.678;2023-10-09T07:16:19;7.47;;;3.45;;
42978;SDS011;28616;44.746;19.678;2023-10-09T07:19:04;7.72;;;3.00;;
42978;SDS011;28616;44.746;19.678;2023-10-09T07:21:56;8.80;;;3.50;;
42978;SDS011;28616;44.746;19.678;2023-10-09T07:24:27;9.75;;;3.13;;
42978;SDS011;28616;44.746;19.678;2023-10-09T07:27:06;11.95;;;3.30;;
42978;SDS011;28616;44.746;19.678;2023-10-09T07:29:39;8.40;;;3.40;;
42978;SDS011;28616;44.746;19.678;2023-10-09T07:32:14;9.10;;;2.50;;
42978;SDS011;28616;44.746;19.678;2023-10-09T07:34:52;7.20;;;3.83;;
42978;SDS011;28616;44.746;19.678;2023-10-09T07:37:25;9.02;;;3.65;;
42978;SDS011;28616;44.746;19.678;2023-10-09T07:40:01;11.07;;;3.25;;
42978;SDS011;28616;44.746;19.678;2023-10-09T07:42:32;9.32;;;4.05;;
42978;SDS011;28616;44.746;19.678;2023-10-09T07:45:09;10.88;;;4.07;;
42978;SDS011;28616;44.746;19.678;2023-10-09T07:47:47;6.32;;;3.42;;
42978;SDS011;28616;44.746;19.678;2023-10-09T07:50:25;6.50;;;2.40;;
42978;SDS011;28616;44.746;19.678;2023-10-09T07:53:17;7.75;;;3.40;;
42978;SDS011;28616;44.746;19.678;2023-10-09T07:55:46;6.32;;;3.60;;
42978;SDS011;28616;44.746;19.678;2023-10-09T07:58:31;9.70;;;2.42;;
42978;SDS011;28616;44.746;19.678;2023-10-09T08:00:58;6.40;;;2.58;;
42978;SDS011;28616;44.746;19.678;2023-10-09T08:03:36;4.90;;;2.20;;
42978;SDS011;28616;44.746;19.678;2023-10-09T08:06:03;9.55;;;2.20;;
42978;SDS011;28616;44.746;19.678;2023-10-09T08:08:54;6.72;;;2.50;;
42978;SDS011;28616;44.746;19.678;2023-10-09T08:11:45;5.60;;;2.25;;
42978;SDS011;28616;44.746;19.678;2023-10-09T08:14:11;5.28;;;2.33;;
42978;SDS011;28616;44.746;19.678;2023-10-09T08:16:56;11.70;;;2.42;;
42978;SDS011;28616;44.746;19.678;2023-10-09T08:19:46;4.63;;;2.60;;
42978;SDS011;28616;44.746;19.678;2023-10-09T08:22:28;6.32;;;2.60;;
42978;SDS011;28616;44.746;19.678;2023-10-09T08:24:55;4.40;;;1.83;;
42978;SDS011;28616;44.746;19.678;2023-10-09T08:27:25;5.63;;;2.03;;
42978;SDS011;28616;44.746;19.678;2023-10-09T08:29:58;7.22;;;2.28;;
42978;SDS011;28616;44.746;19.678;2023-10-09T08:32:50;7.45;;;2.60;;
42978;SDS011;28616;44.746;19.678;2023-10-09T08:35:29;6.00;;;2.45;;
42978;SDS011;28616;44.746;19.678;2023-10-09T08:40:31;6.35;;;2.28;;
42978;SDS011;28616;44.746;19.678;2023-10-09T08:43:00;5.28;;;2.05;;
42978;SDS011;28616;44.746;19.678;2023-10-09T08:45:52;5.95;;;2.13;;
42978;SDS011;28616;44.746;19.678;2023-10-09T08:48:19;6.22;;;2.00;;
42978;SDS011;28616;44.746;19.678;2023-10-09T08:50:47;4.80;;;1.80;;
42978;SDS011;28616;44.746;19.678;2023-10-09T08:53:19;6.25;;;1.75;;
42978;SDS011;28616;44.746;19.678;2023-10-09T08:55:45;3.08;;;1.80;;
42978;SDS011;28616;44.746;19.678;2023-10-09T08:58:13;12.77;;;1.80;;
42978;SDS011;28616;44.746;19.678;2023-10-09T09:00:50;8.35;;;3.42;;
42978;SDS011;28616;44.746;19.678;2023-10-09T09:03:17;6.78;;;3.60;;
42978;SDS011;28616;44.746;19.678;2023-10-09T09:05:48;8.15;;;3.65;;
42978;SDS011;28616;44.746;19.678;2023-10-09T09:08:27;6.22;;;3.28;;
42978;SDS011;28616;44.746;19.678;2023-10-09T09:10:58;6.75;;;4.03;;
42978;SDS011;28616;44.746;19.678;2023-10-09T09:13:40;6.75;;;1.60;;
42978;SDS011;28616;44.746;19.678;2023-10-09T09:16:14;5.18;;;1.83;;
42978;SDS011;28616;44.746;19.678;2023-10-09T09:18:51;3.78;;;1.70;;
42978;SDS011;28616;44.746;19.678;2023-10-09T09:21:29;6.05;;;3.72;;
42978;SDS011;28616;44.746;19.678;2023-10-09T18:48:07;25.30;;;12.25;;
